Time;durP1;ratioP1;P1;durP2;ratioP2;P2;SDS_P1;SDS_P2;PMS_P1;PMS_P2;Temp;Humidity;BMP_temperature;BMP_pressure;BME280_temperature;BME280_humidity;BME280_pressure;Samples;Min_cycle;Max_cycle;Signal;HPM_P1;HPM_P2
2022/02/22 00:00:49;;;;;;;49.28;6.38;;;5.70;99.90;;;;;;5090220;28;20021;-72
2022/02/22 00:03:15;;;;;;;44.17;7.47;;;5.70;99.90;;;;;;5090270;28;20108;-72
2022/02/22 00:05:41;;;;;;;43.33;7.07;;;5.60;99.90;;;;;;5074626;28;20033;-72
2022/02/22 00:08:06;;;;;;;40.55;7.18;;;5.60;99.90;;;;;;5056674;28;20439;-72
2022/02/22 00:10:32;;;;;;;43.03;7.68;;;5.60;99.90;;;;;;5074517;28;20025;-73
2022/02/22 00:12:57;;;;;;;45.30;7.32;;;5.60;99.90;;;;;;5073313;28;20390;-73
2022/02/22 00:15:23;;;;;;;41.47;6.82;;;5.60;99.90;;;;;;5074449;28;20024;-72
2022/02/22 00:17:49;;;;;;;38.83;6.78;;;5.70;99.90;;;;;;5074503;28;20103;-73
2022/02/22 00:20:16;;;;;;;42.28;7.63;;;5.70;99.90;;;;;;5073138;28;20424;-73
2022/02/22 00:22:42;;;;;;;49.53;6.78;;;5.70;99.90;;;;;;5056579;28;20059;-73
2022/02/22 00:25:12;;;;;;;39.53;6.43;;;5.70;99.90;;;;;;5055726;28;20067;-72
2022/02/22 00:27:41;;;;;;;35.92;6.63;;;5.80;99.90;;;;;;5089820;28;20023;-73
2022/02/22 00:30:07;;;;;;;52.65;7.20;;;5.70;99.90;;;;;;5073057;28;20448;-73
2022/02/22 00:32:33;;;;;;;45.50;6.45;;;5.60;99.90;;;;;;5074150;28;20494;-72
2022/02/22 00:34:59;;;;;;;37.30;6.15;;;5.60;99.90;;;;;;5073642;28;20023;-73
2022/02/22 00:37:25;;;;;;;31.65;6.25;;;5.60;99.90;;;;;;5074148;28;20394;-73
2022/02/22 00:39:50;;;;;;;34.40;5.78;;;5.60;99.90;;;;;;5073070;28;20367;-72
2022/02/22 00:42:16;;;;;;;43.63;6.15;;;5.60;99.90;;;;;;5073795;28;20044;-73
2022/02/22 00:44:42;;;;;;;31.15;5.07;;;5.60;99.90;;;;;;5089733;28;20048;-72
2022/02/22 00:47:08;;;;;;;28.02;5.75;;;5.50;99.90;;;;;;5089761;28;20470;-73
2022/02/22 00:49:34;;;;;;;36.80;4.70;;;5.50;99.90;;;;;;5056041;28;20025;-73
2022/02/22 00:52:00;;;;;;;26.60;4.97;;;5.40;99.90;;;;;;5072796;28;20027;-72
2022/02/22 00:54:26;;;;;;;30.60;5.05;;;5.40;99.90;;;;;;5072595;28;20032;-72
2022/02/22 00:56:52;;;;;;;34.95;5.63;;;5.40;99.90;;;;;;5074097;28;20557;-72
2022/02/22 00:59:17;;;;;;;35.50;5.63;;;5.30;99.90;;;;;;5072526;28;20031;-73
2022/02/22 01:01:43;;;;;;;26.95;4.75;;;5.30;99.90;;;;;;5073680;28;20038;-73
2022/02/22 01:04:09;;;;;;;34.65;6.05;;;5.20;99.90;;;;;;5072446;28;20027;-73
2022/02/22 01:06:34;;;;;;;42.33;5.93;;;5.10;99.90;;;;;;5073715;28;20028;-73
2022/02/22 01:09:00;;;;;;;34.47;5.28;;;5.10;99.90;;;;;;5072447;28;20432;-72
2022/02/22 01:11:28;;;;;;;32.58;5.88;;;5.00;99.90;;;;;;5072403;28;20094;-73
2022/02/22 01:13:53;;;;;;;36.42;5.30;;;4.90;99.90;;;;;;5073618;28;20025;-72
2022/02/22 01:16:19;;;;;;;31.45;5.65;;;4.90;99.90;;;;;;5072365;28;20039;-73
2022/02/22 01:18:44;;;;;;;36.92;6.05;;;4.90;99.90;;;;;;5072361;28;20146;-73
2022/02/22 01:21:10;;;;;;;32.35;6.35;;;4.90;99.90;;;;;;5055485;28;20505;-73
2022/02/22 01:23:36;;;;;;;41.80;6.85;;;5.00;99.90;;;;;;5072341;28;20062;-73
2022/02/22 01:26:01;;;;;;;34.20;5.97;;;4.90;99.90;;;;;;5055521;28;20020;-72
2022/02/22 01:28:27;;;;;;;44.20;6.20;;;4.90;99.90;;;;;;5073277;28;20107;-73
2022/02/22 01:30:52;;;;;;;37.22;6.10;;;4.80;99.90;;;;;;5072066;28;20058;-73
2022/02/22 01:33:18;;;;;;;36.08;6.38;;;4.80;99.90;;;;;;5073251;28;20025;-73
2022/02/22 01:35:43;;;;;;;35.67;6.30;;;4.80;99.90;;;;;;5072006;28;20013;-73
2022/02/22 01:38:09;;;;;;;39.53;6.30;;;4.80;99.90;;;;;;5071859;28;20142;-73
2022/02/22 01:40:35;;;;;;;44.22;6.65;;;4.80;99.90;;;;;;5054982;28;20020;-73
2022/02/22 01:43:00;;;;;;;40.22;6.85;;;4.80;99.90;;;;;;5055083;28;20055;-73
2022/02/22 01:45:26;;;;;;;40.72;6.10;;;4.90;99.90;;;;;;5055089;28;20021;-73
2022/02/22 01:47:52;;;;;;;41.65;7.15;;;4.90;99.90;;;;;;5071909;28;20056;-72
2022/02/22 01:50:18;;;;;;;41.33;6.63;;;5.00;99.90;;;;;;5073043;28;20017;-73
2022/02/22 01:52:43;;;;;;;33.83;6.60;;;5.00;99.90;;;;;;5071883;28;20145;-73
2022/02/22 01:55:09;;;;;;;44.50;5.88;;;5.00;99.90;;;;;;5071910;28;20028;-73
2022/02/22 01:57:35;;;;;;;47.97;6.85;;;5.00;99.90;;;;;;5088433;28;20027;-73
2022/02/22 02:00:05;;;;;;;43.55;6.47;;;5.00;99.90;;;;;;5073000;28;20040;-72
2022/02/22 02:02:31;;;;;;;44.45;6.47;;;5.00;99.90;;;;;;5071704;28;20490;-73
2022/02/22 02:04:56;;;;;;;39.10;6.80;;;4.90;99.90;;;;;;5072965;28;20027;-73
2022/02/22 02:07:22;;;;;;;35.88;6.65;;;4.90;99.90;;;;;;5088427;28;20027;-73
2022/02/22 02:09:47;;;;;;;40.45;6.65;;;4.90;99.90;;;;;;5071706;28;20052;-72
2022/02/22 02:12:13;;;;;;;31.83;6.45;;;4.90;99.90;;;;;;5072854;28;20500;-73
2022/02/22 02:14:38;;;;;;;44.03;6.25;;;4.80;99.90;;;;;;5071636;28;20024;-73
2022/02/22 02:17:05;;;;;;;34.65;5.32;;;4.90;99.90;;;;;;5071513;28;20028;-73
2022/02/22 02:19:30;;;;;;;34.70;6.53;;;4.90;99.90;;;;;;5071635;28;20029;-73
2022/02/22 02:21:57;;;;;;;40.78;5.85;;;4.90;99.90;;;;;;5088260;28;20387;-73
2022/02/22 02:24:25;;;;;;;39.22;6.18;;;4.80;99.90;;;;;;5071608;28;20017;-73
2022/02/22 02:26:52;;;;;;;42.83;7.30;;;4.80;99.90;;;;;;5071679;28;20552;-73
2022/02/22 02:29:21;;;;;;;37.33;6.50;;;4.70;99.90;;;;;;5072677;28;20024;-73
2022/02/22 02:31:48;;;;;;;44.63;6.25;;;4.70;99.90;;;;;;5071515;28;20034;-73
2022/02/22 02:34:18;;;;;;;36.38;6.40;;;4.70;99.90;;;;;;5071489;28;20016;-73
2022/02/22 02:36:44;;;;;;;33.25;6.90;;;4.70;99.90;;;;;;5072591;28;20020;-73
2022/02/22 02:39:11;;;;;;;37.10;6.65;;;4.70;99.90;;;;;;5071397;28;20089;-73
2022/02/22 02:41:37;;;;;;;38.60;6.20;;;4.70;99.90;;;;;;5071152;28;20170;-73
2022/02/22 02:44:07;;;;;;;38.75;6.28;;;4.70;99.90;;;;;;5071405;28;20158;-73
2022/02/22 02:46:33;;;;;;;39.95;6.32;;;4.70;99.90;;;;;;5054552;28;20394;-73
2022/02/22 02:48:59;;;;;;;35.13;6.88;;;4.80;99.90;;;;;;5089159;28;20025;-73
2022/02/22 02:51:25;;;;;;;41.70;8.05;;;4.80;99.90;;;;;;5075275;28;20026;-73
2022/02/22 02:53:52;;;;;;;47.15;8.38;;;4.80;99.90;;;;;;5058101;28;20029;-73
2022/02/22 02:56:25;;;;;;;37.17;5.63;;;4.80;99.90;;;;;;5091610;28;20432;-73
2022/02/22 02:58:52;;;;;;;37.50;6.38;;;4.80;99.90;;;;;;5091605;28;20124;-72
2022/02/22 03:01:20;;;;;;;43.08;6.50;;;4.70;99.90;;;;;;5075798;28;20497;-73
2022/02/22 03:03:45;;;;;;;36.80;6.97;;;4.70;99.90;;;;;;5057944;28;20412;-73
2022/02/22 03:06:11;;;;;;;39.15;5.55;;;4.60;99.90;;;;;;5057901;28;20032;-72
2022/02/22 03:08:37;;;;;;;48.42;7.03;;;4.60;99.90;;;;;;5074618;28;20028;-72
2022/02/22 03:11:02;;;;;;;60.78;7.72;;;4.50;99.90;;;;;;5091340;28;20017;-73
2022/02/22 03:13:28;;;;;;;37.40;6.68;;;4.40;99.90;;;;;;5075802;28;20413;-72
2022/02/22 03:19:19;;;;;;;53.63;6.60;;;4.40;99.90;;;;;;5075391;28;20056;-73
2022/02/22 03:22:20;;;;;;;42.28;6.47;;;4.40;99.90;;;;;;5057572;28;20059;-72
2022/02/22 03:24:46;;;;;;;47.83;7.00;;;4.40;99.90;;;;;;5074282;28;20490;-72
2022/02/22 03:27:12;;;;;;;52.92;6.40;;;4.30;99.90;;;;;;5057649;28;20024;-73
2022/02/22 03:29:37;;;;;;;50.67;7.70;;;4.30;99.90;;;;;;5090974;28;20471;-72
2022/02/22 03:32:04;;;;;;;41.33;7.20;;;4.40;99.90;;;;;;5074262;28;20070;-72
2022/02/22 03:34:30;;;;;;;45.67;6.78;;;4.30;99.90;;;;;;5090903;28;20024;-73
2022/02/22 03:36:55;;;;;;;63.35;8.85;;;4.30;99.90;;;;;;5074038;28;20154;-73
2022/02/22 03:39:21;;;;;;;41.20;7.10;;;4.20;99.90;;;;;;5075202;28;20028;-73
2022/02/22 03:41:46;;;;;;;45.88;7.63;;;4.20;99.90;;;;;;5073779;28;20045;-73
2022/02/22 03:45:07;;;;;;;39.42;6.00;;;4.20;99.90;;;;;;5075136;28;20044;-73
2022/02/22 03:47:32;;;;;;;42.30;5.75;;;4.30;99.90;;;;;;5074944;28;20029;-73
2022/02/22 03:49:58;;;;;;;27.83;5.53;;;4.30;99.90;;;;;;5057103;28;20020;-72
2022/02/22 03:52:24;;;;;;;43.58;6.85;;;4.30;99.90;;;;;;5073895;28;20024;-73
2022/02/22 03:54:50;;;;;;;35.00;6.20;;;4.30;99.90;;;;;;5073793;28;20020;-73
2022/02/22 03:57:15;;;;;;;43.80;6.05;;;4.20;99.90;;;;;;5073725;28;20440;-73
2022/02/22 03:59:41;;;;;;;38.65;6.68;;;4.30;99.90;;;;;;5056866;28;20028;-72
2022/02/22 04:02:06;;;;;;;44.55;7.43;;;4.20;99.90;;;;;;5074717;28;20389;-72
2022/02/22 04:04:32;;;;;;;45.78;6.90;;;4.20;99.90;;;;;;5056807;28;20031;-72
2022/02/22 04:06:58;;;;;;;41.33;5.75;;;4.20;99.90;;;;;;5090331;28;20021;-73
2022/02/22 04:09:23;;;;;;;46.00;6.05;;;4.20;99.90;;;;;;5073463;28;20017;-73
2022/02/22 04:11:48;;;;;;;45.03;6.53;;;4.20;99.90;;;;;;5073318;28;20025;-73
2022/02/22 04:14:14;;;;;;;40.60;6.50;;;4.10;99.90;;;;;;5073278;28;20024;-73
2022/02/22 04:16:39;;;;;;;31.33;5.57;;;4.10;99.90;;;;;;5073367;28;20393;-73
2022/02/22 04:19:05;;;;;;;40.58;6.10;;;4.00;99.90;;;;;;5074482;28;20028;-73
2022/02/22 04:21:30;;;;;;;37.60;6.90;;;4.00;99.90;;;;;;5074397;28;20032;-72
2022/02/22 04:23:56;;;;;;;44.95;7.05;;;3.90;99.90;;;;;;5074446;28;20074;-72
2022/02/22 04:26:21;;;;;;;45.28;6.35;;;3.90;99.90;;;;;;5074292;28;20543;-73
2022/02/22 04:28:47;;;;;;;41.30;6.78;;;3.80;99.90;;;;;;5073052;28;20017;-73
2022/02/22 04:31:13;;;;;;;43.13;6.35;;;3.80;99.90;;;;;;5073041;28;20016;-72
2022/02/22 04:33:38;;;;;;;40.17;7.07;;;3.80;99.90;;;;;;5074177;28;20016;-73
2022/02/22 04:36:04;;;;;;;39.33;6.50;;;3.80;99.90;;;;;;5074111;28;20024;-73
2022/02/22 04:38:29;;;;;;;42.42;7.45;;;3.80;99.90;;;;;;5074090;28;20021;-73
2022/02/22 04:40:55;;;;;;;41.45;6.85;;;3.70;99.90;;;;;;5072712;28;20049;-73
2022/02/22 04:43:20;;;;;;;41.85;6.10;;;3.90;99.90;;;;;;5072719;28;20028;-73
2022/02/22 04:45:46;;;;;;;36.50;5.25;;;3.60;99.90;;;;;;5073909;28;20031;-73
2022/02/22 04:48:11;;;;;;;39.53;7.00;;;3.70;99.90;;;;;;5089405;28;20496;-73
2022/02/22 04:50:37;;;;;;;53.45;6.78;;;3.60;99.90;;;;;;5089348;28;20032;-72
2022/02/22 04:53:03;;;;;;;53.13;7.97;;;3.70;99.90;;;;;;5089362;28;20021;-73
2022/02/22 04:55:29;;;;;;;51.72;6.80;;;3.60;99.90;;;;;;5056093;28;20031;-73
2022/02/22 04:57:54;;;;;;;51.95;7.72;;;3.60;99.90;;;;;;5073729;28;20103;-74
2022/02/22 05:00:21;;;;;;;50.55;7.88;;;3.60;99.90;;;;;;5072545;28;20023;-73
2022/02/22 05:02:46;;;;;;;46.67;8.40;;;3.60;99.90;;;;;;5072365;28;20040;-72
2022/02/22 05:05:12;;;;;;;47.60;7.10;;;3.70;99.90;;;;;;5072371;28;20021;-74
2022/02/22 05:07:37;;;;;;;55.78;6.28;;;3.70;99.90;;;;;;5089159;28;20478;-72
2022/02/22 05:10:03;;;;;;;50.10;7.13;;;3.70;99.90;;;;;;5072239;28;20534;-73
2022/02/22 05:12:29;;;;;;;57.22;8.48;;;3.70;99.90;;;;;;5073142;28;20111;-73
2022/02/22 05:14:55;;;;;;;66.80;8.07;;;3.80;99.90;;;;;;5073551;28;20060;-73
2022/02/22 05:17:20;;;;;;;60.88;8.18;;;3.70;99.90;;;;;;5073413;28;20020;-73
2022/02/22 05:19:46;;;;;;;48.42;7.25;;;3.80;99.90;;;;;;5072184;28;20028;-73
2022/02/22 05:22:11;;;;;;;40.35;7.55;;;3.70;99.90;;;;;;5073231;28;20071;-72
2022/02/22 05:24:37;;;;;;;66.65;7.07;;;3.80;99.90;;;;;;5073318;28;20039;-73
2022/02/22 05:27:02;;;;;;;50.83;7.13;;;4.00;99.90;;;;;;5073311;28;20499;-73
2022/02/22 05:29:28;;;;;;;50.42;6.95;;;3.90;99.90;;;;;;5055371;28;20547;-73
2022/02/22 05:31:53;;;;;;;57.10;7.90;;;3.70;99.90;;;;;;5055242;28;20107;-73
2022/02/22 05:34:19;;;;;;;45.72;7.22;;;3.70;99.90;;;;;;5073199;28;20025;-73
2022/02/22 05:36:44;;;;;;;63.33;7.38;;;3.80;99.90;;;;;;5055190;28;20024;-73
2022/02/22 05:39:10;;;;;;;56.05;7.55;;;3.70;99.90;;;;;;5071985;28;20024;-73
2022/02/22 05:41:35;;;;;;;57.78;8.00;;;3.70;99.90;;;;;;5071712;28;20055;-73
2022/02/22 05:44:01;;;;;;;54.47;8.18;;;3.70;99.90;;;;;;5071781;28;20029;-73
2022/02/22 05:46:26;;;;;;;51.35;7.30;;;3.80;99.90;;;;;;5073120;28;20029;-73
2022/02/22 05:48:52;;;;;;;56.83;8.55;;;3.70;99.90;;;;;;5071833;28;20017;-73
2022/02/22 05:51:17;;;;;;;51.30;7.53;;;3.70;99.90;;;;;;5071817;28;20062;-72
2022/02/22 05:53:43;;;;;;;43.95;7.72;;;3.80;99.90;;;;;;5073021;28;20500;-73
2022/02/22 05:56:09;;;;;;;56.70;7.32;;;3.60;99.90;;;;;;5072958;28;20020;-73
2022/02/22 05:58:35;;;;;;;53.97;8.18;;;3.60;99.90;;;;;;5071774;28;20031;-73
2022/02/22 06:01:00;;;;;;;49.00;8.07;;;3.70;99.90;;;;;;5072962;28;20025;-73
2022/02/22 06:03:26;;;;;;;49.22;8.10;;;3.70;99.90;;;;;;5071594;28;20033;-73
2022/02/22 06:05:52;;;;;;;59.47;7.70;;;3.70;99.90;;;;;;5072928;28;20058;-73
2022/02/22 06:08:17;;;;;;;51.10;8.35;;;3.70;99.90;;;;;;5071761;28;20021;-73
2022/02/22 06:10:43;;;;;;;51.10;7.72;;;3.70;99.90;;;;;;5072867;28;20024;-73
2022/02/22 06:13:08;;;;;;;61.10;8.23;;;3.60;99.90;;;;;;5072934;28;20398;-72
2022/02/22 06:15:34;;;;;;;54.97;7.93;;;3.60;99.90;;;;;;5072781;28;20067;-73
2022/02/22 06:17:59;;;;;;;52.20;7.68;;;3.60;99.90;;;;;;5071694;28;20035;-72
2022/02/22 06:20:27;;;;;;;72.25;8.65;;;3.60;99.90;;;;;;5071728;28;20070;-73
2022/02/22 06:22:53;;;;;;;59.28;8.52;;;3.60;99.90;;;;;;5072631;28;20421;-73
2022/02/22 06:25:18;;;;;;;59.80;9.25;;;3.60;99.90;;;;;;5091643;28;20027;-73
2022/02/22 06:27:50;;;;;;;61.47;8.20;;;3.60;99.90;;;;;;5076555;28;20024;-73
2022/02/22 06:30:18;;;;;;;54.03;8.80;;;3.60;99.90;;;;;;5075275;28;20393;-73
2022/02/22 06:32:43;;;;;;;48.60;7.57;;;3.60;99.90;;;;;;5075199;28;20478;-73
2022/02/22 06:35:09;;;;;;;59.72;8.65;;;3.60;99.90;;;;;;5092040;28;20081;-73
2022/02/22 06:37:35;;;;;;;55.53;8.10;;;3.60;99.90;;;;;;5076285;28;20166;-73
2022/02/22 06:40:02;;;;;;;60.63;8.35;;;3.70;99.90;;;;;;5075240;28;20052;-73
2022/02/22 06:42:28;;;;;;;49.50;6.88;;;3.70;99.90;;;;;;5091689;28;20051;-72
2022/02/22 06:44:53;;;;;;;60.60;8.57;;;3.70;99.90;;;;;;5075006;28;20118;-72
2022/02/22 06:47:19;;;;;;;55.33;8.23;;;3.70;99.90;;;;;;5076213;28;20082;-72
2022/02/22 06:49:44;;;;;;;56.78;8.20;;;3.70;99.90;;;;;;5075010;28;20096;-72
2022/02/22 06:52:10;;;;;;;61.42;7.93;;;3.80;99.90;;;;;;5074834;28;20048;-72
2022/02/22 06:54:35;;;;;;;50.15;7.78;;;3.90;99.90;;;;;;5074851;28;20509;-73
2022/02/22 06:57:01;;;;;;;51.80;8.60;;;4.00;99.90;;;;;;5074811;28;20029;-72
2022/02/22 06:59:26;;;;;;;51.50;9.38;;;4.10;99.90;;;;;;5058202;28;20057;-72
2022/02/22 07:01:52;;;;;;;51.38;8.55;;;4.30;99.90;;;;;;5074624;28;20107;-73
2022/02/22 07:04:17;;;;;;;70.50;7.93;;;4.40;99.90;;;;;;5091416;28;20429;-73
2022/02/22 07:06:43;;;;;;;56.33;9.38;;;4.40;99.90;;;;;;5074302;28;20021;-73
2022/02/22 07:09:08;;;;;;;52.83;8.98;;;4.40;99.90;;;;;;5091307;28;20032;-73
2022/02/22 07:11:34;;;;;;;51.38;8.48;;;4.40;99.90;;;;;;5075532;28;20021;-73
2022/02/22 07:13:59;;;;;;;50.17;8.38;;;4.60;99.90;;;;;;5074221;28;20497;-73
2022/02/22 07:16:25;;;;;;;49.83;8.30;;;5.00;99.90;;;;;;5091205;28;20028;-73
2022/02/22 07:18:52;;;;;;;43.08;8.05;;;5.20;99.90;;;;;;5074318;28;20100;-73
2022/02/22 07:21:17;;;;;;;44.50;7.13;;;5.40;99.90;;;;;;5075095;28;20382;-73
2022/02/22 07:23:43;;;;;;;50.20;8.30;;;5.60;99.90;;;;;;5075354;28;20027;-73
2022/02/22 07:26:08;;;;;;;44.13;7.25;;;5.70;99.90;;;;;;5075391;28;20385;-73
2022/02/22 07:28:34;;;;;;;47.17;7.35;;;5.50;99.90;;;;;;5074202;28;20019;-73
2022/02/22 07:30:59;;;;;;;43.45;8.38;;;5.20;99.90;;;;;;5074125;28;20059;-73
2022/02/22 07:33:25;;;;;;;50.35;7.82;;;5.20;99.90;;;;;;5074093;28;20111;-73
2022/02/22 07:35:50;;;;;;;44.78;6.70;;;5.00;99.90;;;;;;5073582;28;20028;-73
2022/02/22 07:38:16;;;;;;;53.78;7.97;;;5.10;99.90;;;;;;5075191;28;20021;-72
2022/02/22 07:40:42;;;;;;;48.42;8.10;;;5.10;99.90;;;;;;5073833;28;20024;-73
2022/02/22 07:43:07;;;;;;;37.40;7.43;;;5.20;99.90;;;;;;5075073;28;20028;-73
2022/02/22 07:45:33;;;;;;;47.78;7.43;;;5.40;99.90;;;;;;5090644;28;20423;-73
2022/02/22 07:48:00;;;;;;;54.38;8.00;;;5.50;99.90;;;;;;5072893;28;20386;-74
2022/02/22 07:50:26;;;;;;;44.67;7.43;;;5.80;99.90;;;;;;5074725;28;20016;-72
2022/02/22 07:52:51;;;;;;;43.30;7.28;;;6.00;99.90;;;;;;5073479;28;20678;-73
2022/02/22 07:55:18;;;;;;;45.38;7.80;;;6.30;99.90;;;;;;5056875;28;20166;-74
2022/02/22 07:57:44;;;;;;;34.92;6.90;;;6.70;99.90;;;;;;5074354;28;20397;-74
2022/02/22 08:00:10;;;;;;;34.42;6.80;;;7.00;99.90;;;;;;5078161;28;20020;-74
2022/02/22 08:02:36;;;;;;;45.85;7.88;;;6.70;99.90;;;;;;5072997;28;20028;-73
2022/02/22 08:05:02;;;;;;;41.50;7.57;;;6.40;99.90;;;;;;5056119;28;20389;-74
2022/02/22 08:07:28;;;;;;;54.28;7.97;;;6.20;99.90;;;;;;5072098;28;20024;-75
2022/02/22 08:09:53;;;;;;;44.22;8.48;;;6.10;99.90;;;;;;5073587;28;20016;-77
2022/02/22 08:12:19;;;;;;;48.75;8.70;;;6.40;99.90;;;;;;5072946;28;20394;-75
2022/02/22 08:14:44;;;;;;;46.42;8.27;;;6.50;99.90;;;;;;5073174;28;20465;-75
2022/02/22 08:17:10;;;;;;;44.78;8.90;;;6.80;99.90;;;;;;5074009;28;20431;-76
2022/02/22 08:19:36;;;;;;;44.80;8.70;;;6.90;99.90;;;;;;5072618;28;20036;-77
2022/02/22 08:22:02;;;;;;;42.03;10.00;;;7.20;99.90;;;;;;5056057;28;20032;-76
2022/02/22 08:24:27;;;;;;;50.28;10.27;;;7.30;99.90;;;;;;5074922;28;20020;-77
2022/02/22 08:26:56;;;;;;;53.17;11.15;;;7.20;99.90;;;;;;5056190;28;20017;-77
2022/02/22 08:29:22;;;;;;;61.40;10.20;;;6.90;99.90;;;;;;5073674;28;20028;-78
2022/02/22 08:31:49;;;;;;;46.08;10.23;;;6.70;99.90;;;;;;5074262;28;20493;-76
2022/02/22 08:34:15;;;;;;;42.42;10.55;;;6.70;99.90;;;;;;5072500;28;20078;-77
2022/02/22 08:36:41;;;;;;;52.83;12.15;;;6.50;99.90;;;;;;5091916;28;20486;-76
2022/02/22 08:39:06;;;;;;;53.42;11.57;;;6.40;99.90;;;;;;5072769;28;20020;-77
2022/02/22 08:41:32;;;;;;;51.85;11.77;;;6.20;99.90;;;;;;5055396;28;20047;-76
2022/02/22 08:43:58;;;;;;;47.40;13.20;;;6.20;99.90;;;;;;5072576;28;20036;-75
2022/02/22 08:46:24;;;;;;;50.55;13.00;;;6.10;99.90;;;;;;5054965;28;20074;-75
2022/02/22 08:48:53;;;;;;;48.67;13.88;;;6.10;99.90;;;;;;5038941;28;20043;-76
2022/02/22 08:51:18;;;;;;;61.92;12.98;;;6.00;99.90;;;;;;5073537;28;20079;-76
2022/02/22 08:53:44;;;;;;;52.25;12.15;;;6.20;99.90;;;;;;5072746;28;20028;-77
2022/02/22 08:56:10;;;;;;;60.35;10.85;;;6.50;99.90;;;;;;5073646;28;20234;-77
2022/02/22 08:58:36;;;;;;;50.00;10.70;;;6.80;99.90;;;;;;5038954;28;20021;-76
2022/02/22 09:01:02;;;;;;;53.42;11.05;;;7.40;99.90;;;;;;5073811;28;20035;-77
2022/02/22 09:03:28;;;;;;;38.03;9.27;;;7.80;99.90;;;;;;5072256;28;20036;-77
2022/02/22 09:05:54;;;;;;;35.85;10.52;;;8.60;99.90;;;;;;5055509;28;20024;-78
2022/02/22 09:08:20;;;;;;;33.72;8.55;;;9.50;99.90;;;;;;5055255;28;20539;-77
2022/02/22 09:10:47;;;;;;;38.42;8.77;;;9.80;99.90;;;;;;5072222;28;20028;-77
2022/02/22 09:13:13;;;;;;;37.33;8.85;;;10.00;99.90;;;;;;5071836;28;20500;-78
2022/02/22 09:15:39;;;;;;;38.65;9.85;;;9.40;99.90;;;;;;5072037;28;20051;-76
2022/02/22 09:18:05;;;;;;;37.03;9.20;;;8.90;99.90;;;;;;5071917;28;20028;-78
2022/02/22 09:20:31;;;;;;;31.85;9.18;;;8.50;99.90;;;;;;5088982;28;20104;-77
2022/02/22 09:22:57;;;;;;;46.88;10.20;;;8.20;99.90;;;;;;5071435;28;20029;-78
2022/02/22 09:25:24;;;;;;;40.45;9.90;;;8.20;99.90;;;;;;5071623;28;20024;-72
2022/02/22 09:27:50;;;;;;;41.08;9.35;;;8.10;99.90;;;;;;5071835;28;20025;-72
2022/02/22 09:30:20;;;;;;;33.83;8.95;;;8.10;99.90;;;;;;5072897;28;20074;-73
2022/02/22 09:32:48;;;;;;;38.67;9.07;;;7.70;99.90;;;;;;5052933;28;20036;-72
2022/02/22 09:35:15;;;;;;;41.70;8.35;;;7.60;99.90;;;;;;5053408;28;20032;-72
2022/02/22 09:37:42;;;;;;;45.60;8.95;;;7.80;99.90;;;;;;5071550;28;20059;-73
2022/02/22 09:40:08;;;;;;;39.28;9.55;;;7.60;99.90;;;;;;5071643;28;20024;-72
2022/02/22 09:42:34;;;;;;;40.47;7.63;;;7.70;99.90;;;;;;5071558;28;20051;-71
2022/02/22 09:45:00;;;;;;;47.53;8.40;;;7.60;99.90;;;;;;5073000;28;20024;-73
2022/02/22 09:47:26;;;;;;;35.25;7.88;;;7.70;99.90;;;;;;5054456;28;20029;-72
2022/02/22 09:49:51;;;;;;;34.80;7.55;;;7.90;99.90;;;;;;5054995;28;20516;-72
2022/02/22 09:52:17;;;;;;;39.28;8.02;;;8.40;99.90;;;;;;5071423;28;20482;-72
2022/02/22 09:54:42;;;;;;;35.92;7.45;;;8.70;99.90;;;;;;5072619;28;20035;-75
2022/02/22 09:57:08;;;;;;;42.38;8.27;;;8.80;99.90;;;;;;5054665;28;20017;-74
2022/02/22 09:59:33;;;;;;;29.00;6.05;;;8.40;99.90;;;;;;5076423;28;20025;-74
2022/02/22 10:01:59;;;;;;;37.30;7.00;;;7.80;99.90;;;;;;5058547;28;20025;-74
2022/02/22 10:04:26;;;;;;;31.50;6.00;;;7.80;99.90;;;;;;5076053;28;20101;-74
2022/02/22 10:07:01;;;;;;;20.05;5.65;;;7.70;99.90;;;;;;5055383;28;20406;-75
2022/02/22 10:09:27;;;;;;;40.08;8.02;;;7.70;99.90;;;;;;5055490;28;20071;-74
2022/02/22 10:11:54;;;;;;;32.67;7.32;;;7.70;99.90;;;;;;5068748;28;20024;-74
2022/02/22 10:14:29;;;;;;;30.58;6.53;;;7.90;99.90;;;;;;5075510;28;20423;-74
2022/02/22 10:16:57;;;;;;;30.20;6.68;;;8.00;99.90;;;;;;5076390;28;20040;-76
2022/02/22 10:19:27;;;;;;;29.88;6.93;;;8.20;99.90;;;;;;5076611;28;20101;-73
2022/02/22 10:22:00;;;;;;;27.85;6.07;;;8.30;99.90;;;;;;5075587;28;20028;-73
2022/02/22 10:24:29;;;;;;;25.13;6.50;;;8.10;99.90;;;;;;5075363;28;20017;-73
2022/02/22 10:27:04;;;;;;;38.95;7.00;;;8.10;99.90;;;;;;5074736;28;20035;-73
2022/02/22 10:29:31;;;;;;;24.90;5.70;;;8.00;99.90;;;;;;5059081;28;20119;-74
2022/02/22 10:31:57;;;;;;;25.63;6.47;;;8.20;99.90;;;;;;5075919;28;20028;-73
2022/02/22 10:34:31;;;;;;;30.70;6.32;;;8.40;99.90;;;;;;5076128;28;20028;-73
2022/02/22 10:36:57;;;;;;;20.50;5.18;;;8.40;99.90;;;;;;5080979;28;20603;-73
2022/02/22 10:39:22;;;;;;;21.90;5.63;;;8.20;99.90;;;;;;5076123;28;20050;-73
2022/02/22 10:41:52;;;;;;;30.83;8.27;;;8.20;99.90;;;;;;5057841;28;20041;-73
2022/02/22 10:44:36;;;;;;;25.13;5.85;;;8.30;99.90;;;;;;5058899;28;20042;-74
2022/02/22 10:47:03;;;;;;;;;;;8.20;99.90;;;;;;5071479;28;20086;-74
2022/02/22 10:49:32;;;;;;;26.83;4.35;;;8.10;99.90;;;;;;5078185;28;19916;-73
2022/02/22 10:52:04;;;;;;;29.50;5.65;;;8.00;99.90;;;;;;5075960;28;20024;-74
2022/02/22 10:54:30;;;;;;;19.33;4.53;;;7.90;99.90;;;;;;5061093;28;20055;-74
2022/02/22 10:56:56;;;;;;;21.40;4.50;;;8.00;99.90;;;;;;5057874;28;20498;-73
2022/02/22 10:59:23;;;;;;;24.77;4.90;;;8.00;99.90;;;;;;5057298;28;20119;-73
2022/02/22 11:01:50;;;;;;;23.55;5.05;;;8.10;99.90;;;;;;5074766;28;20028;-74
2022/02/22 11:04:16;;;;;;;21.15;4.40;;;8.20;99.90;;;;;;5073991;28;20024;-73
2022/02/22 11:06:42;;;;;;;19.10;4.30;;;8.20;99.90;;;;;;5074432;28;20105;-73
2022/02/22 11:09:08;;;;;;;24.48;5.38;;;8.20;99.90;;;;;;5073847;28;20024;-73
2022/02/22 11:11:39;;;;;;;27.98;5.32;;;8.20;99.90;;;;;;5074253;28;20114;-74
2022/02/22 11:14:11;;;;;;;25.17;5.20;;;8.20;99.90;;;;;;5075141;28;20182;-75
2022/02/22 11:16:45;;;;;;;19.85;4.28;;;8.10;99.90;;;;;;5079900;28;20390;-75
2022/02/22 11:19:15;;;;;;;16.75;4.15;;;8.20;99.90;;;;;;5079990;28;20105;-74
2022/02/22 11:21:44;;;;;;;21.48;4.20;;;8.30;99.90;;;;;;5077323;28;20016;-73
2022/02/22 11:24:10;;;;;;;22.15;5.13;;;8.20;99.90;;;;;;5089846;28;20024;-73
2022/02/22 11:26:47;;;;;;;19.15;4.65;;;8.20;99.90;;;;;;5074481;28;20016;-73
2022/02/22 11:29:14;;;;;;;21.13;4.90;;;8.30;99.90;;;;;;5076166;28;20558;-73
2022/02/22 11:31:40;;;;;;;22.88;5.45;;;8.20;99.90;;;;;;5085228;28;20478;-73
2022/02/22 11:34:06;;;;;;;21.98;4.78;;;8.20;99.90;;;;;;5061884;28;20025;-74
2022/02/22 11:36:37;;;;;;;16.75;4.43;;;8.30;99.90;;;;;;5076290;28;20112;-73
2022/02/22 11:39:05;;;;;;;21.92;5.35;;;8.30;99.90;;;;;;5105045;28;20127;-75
2022/02/22 11:41:38;;;;;;;18.92;4.38;;;8.30;99.90;;;;;;5094176;28;20473;-74
2022/02/22 11:44:08;;;;;;;;;;;8.40;99.90;;;;;;5075851;28;20024;-75
2022/02/22 11:46:40;;;;;;;24.52;5.35;;;8.30;99.90;;;;;;5076238;28;20002;-76
2022/02/22 11:49:08;;;;;;;24.85;5.60;;;8.30;99.90;;;;;;5074711;28;20060;-75
2022/02/22 11:51:44;;;;;;;24.95;5.47;;;8.30;99.90;;;;;;5092872;28;20016;-75
2022/02/22 11:54:11;;;;;;;22.55;4.95;;;8.30;99.90;;;;;;5082725;28;20016;-75
2022/02/22 11:56:39;;;;;;;27.80;5.47;;;8.30;99.90;;;;;;5076137;28;20504;-76
2022/02/22 11:59:22;;;;;;;24.75;6.10;;;8.30;99.90;;;;;;5065709;28;20388;-76
2022/02/22 12:01:50;;;;;;;28.27;6.32;;;8.40;99.90;;;;;;5070089;28;20390;-77
2022/02/22 12:04:26;;;;;;;25.90;6.22;;;8.40;99.90;;;;;;5091574;28;20027;-75
2022/02/22 12:06:56;;;;;;;24.20;6.50;;;8.50;99.90;;;;;;5078826;28;20520;-75
2022/02/22 12:09:34;;;;;;;25.35;6.72;;;8.50;99.90;;;;;;5059482;28;20525;-75
2022/02/22 12:12:07;;;;;;;27.83;7.00;;;8.50;99.90;;;;;;5067120;28;20032;-75
2022/02/22 12:14:32;;;;;;;26.07;7.17;;;8.60;99.90;;;;;;5086186;28;20047;-75
2022/02/22 12:16:58;;;;;;;31.83;7.43;;;8.70;99.90;;;;;;5073180;28;20263;-75
2022/02/22 12:19:24;;;;;;;26.83;6.57;;;8.70;99.90;;;;;;5084301;28;20032;-75
2022/02/22 12:21:51;;;;;;;25.92;7.22;;;8.70;99.90;;;;;;5056505;28;20120;-75
2022/02/22 12:24:21;;;;;;;23.27;6.82;;;8.70;99.90;;;;;;5067430;28;20492;-75
2022/02/22 12:26:46;;;;;;;22.50;6.38;;;8.70;99.90;;;;;;5081872;28;20448;-76
2022/02/22 12:29:12;;;;;;;25.10;6.47;;;8.70;99.90;;;;;;5066567;28;20081;-75
2022/02/22 12:31:42;;;;;;;26.27;7.18;;;8.80;99.90;;;;;;5060444;28;20032;-75
2022/02/22 12:34:16;;;;;;;32.47;9.57;;;8.70;99.90;;;;;;5084319;28;20027;-74
2022/02/22 12:36:44;;;;;;;29.77;7.40;;;8.70;99.90;;;;;;5064985;28;20123;-73
2022/02/22 12:39:13;;;;;;;24.45;6.32;;;8.80;99.90;;;;;;5081186;28;20112;-74
2022/02/22 12:41:41;;;;;;;32.45;8.75;;;8.80;99.90;;;;;;5085728;28;20390;-73
2022/02/22 12:44:10;;;;;;;30.30;9.68;;;8.80;99.90;;;;;;5074869;28;20499;-74
2022/02/22 12:46:37;;;;;;;27.17;7.38;;;8.40;99.90;;;;;;5049813;28;20479;-73
2022/02/22 12:49:08;;;;;;;30.50;6.63;;;8.30;99.90;;;;;;5074625;28;20027;-73